createdAt,value
2023-04-01T00:02:06.787Z,10.19
2023-04-01T00:04:34.718Z,10.20
2023-04-01T00:07:03.040Z,10.12
2023-04-01T00:09:31.081Z,10.25
2023-04-01T00:11:58.715Z,10.14
2023-04-01T00:14:26.435Z,10.21
2023-04-01T00:16:54.511Z,10.11
2023-04-01T00:19:23.539Z,10.15
2023-04-01T00:21:51.192Z,10.33
2023-04-01T00:24:18.861Z,10.10
2023-04-01T00:26:48.510Z,10.09
2023-04-01T00:29:16.155Z,9.96
2023-04-01T00:31:43.883Z,9.97
2023-04-01T00:34:11.528Z,10.07
2023-04-01T00:36:40.757Z,10.16
2023-04-01T00:39:08.417Z,10.04
2023-04-01T00:41:36.378Z,10.11
2023-04-01T00:44:19.023Z,9.97
2023-04-01T00:46:47.071Z,10.11
2023-04-01T00:49:15.984Z,10.11
2023-04-01T00:51:47.289Z,10.16
2023-04-01T00:54:16.737Z,10.08
2023-04-01T00:56:49.661Z,10.19
2023-04-01T00:59:22.882Z,10.11
2023-04-01T01:01:51.966Z,10.11
2023-04-01T01:04:28.030Z,10.16
2023-04-01T01:07:07.353Z,10.21
2023-04-01T01:09:45.286Z,10.12
2023-04-01T01:12:16.259Z,10.10
2023-04-01T01:14:54.800Z,10.09
2023-04-01T01:17:34.399Z,10.21
2023-04-01T01:20:26.570Z,10.21
2023-04-01T01:23:19.058Z,10.21
2023-04-01T01:25:58.653Z,10.15
2023-04-01T01:28:38.324Z,10.16
2023-04-01T01:31:14.972Z,10.24
2023-04-01T01:34:12.428Z,10.07
2023-04-01T01:36:45.994Z,10.07
2023-04-01T01:39:15.043Z,10.22
2023-04-01T01:41:44.917Z,9.95
2023-04-01T01:44:15.896Z,10.25
2023-04-01T01:46:45.773Z,10.18
2023-04-01T01:49:14.988Z,10.26
2023-04-01T01:51:45.002Z,10.05
2023-04-01T01:54:14.684Z,10.20
2023-04-01T01:56:45.237Z,10.20
2023-04-01T01:59:14.818Z,10.18
2023-04-01T02:01:47.230Z,10.23
2023-04-01T02:04:16.893Z,10.19
2023-04-01T02:06:53.352Z,10.24
2023-04-01T02:09:21.941Z,10.14
2023-04-01T02:11:52.889Z,10.15
2023-04-01T02:14:23.497Z,10.27
2023-04-01T02:16:55.638Z,10.26
2023-04-01T02:19:27.747Z,10.30
2023-04-01T02:21:59.623Z,10.11
2023-04-01T02:24:29.391Z,10.17
2023-04-01T02:26:57.634Z,10.26
2023-04-01T02:29:26.964Z,10.21
2023-04-01T02:31:56.624Z,10.10
2023-04-01T02:34:26.611Z,10.14
2023-04-01T02:36:55.664Z,10.22
2023-04-01T02:39:26.503Z,10.30
2023-04-01T02:41:54.865Z,10.15
2023-04-01T02:44:22.652Z,10.27
2023-04-01T02:46:51.365Z,10.26
2023-04-01T02:49:18.999Z,10.33
2023-04-01T02:51:47.031Z,10.34
2023-04-01T02:54:43.287Z,10.14
2023-04-01T02:57:12.470Z,10.17
2023-04-01T02:59:40.964Z,10.09
2023-04-01T03:02:08.728Z,10.17
2023-04-01T03:04:36.367Z,10.28
2023-04-01T03:07:04.247Z,10.26
2023-04-01T03:09:32.693Z,10.17
2023-04-01T03:12:00.369Z,10.17
2023-04-01T03:14:30.780Z,10.26
2023-04-01T03:16:58.676Z,10.11
2023-04-01T03:19:26.599Z,10.24
2023-04-01T03:21:54.359Z,10.20
2023-04-01T03:24:22.294Z,10.21
2023-04-01T03:26:50.343Z,10.16
2023-04-01T03:29:18.087Z,10.20
2023-04-01T03:31:47.110Z,10.16
2023-04-01T03:34:14.952Z,10.08
2023-04-01T03:36:43.261Z,10.10
2023-04-01T03:39:11.011Z,9.98
2023-04-01T03:41:42.682Z,10.09
2023-04-01T03:44:10.383Z,10.01
2023-04-01T03:46:38.206Z,10.05
2023-04-01T03:49:12.423Z,9.98
2023-04-01T03:51:40.518Z,9.92
2023-04-01T03:54:08.504Z,9.69
2023-04-01T03:56:36.399Z,10.00
2023-04-01T03:59:05.923Z,9.85
2023-04-01T04:01:34.253Z,10.02
2023-04-01T04:04:02.212Z,9.91
2023-04-01T04:06:31.467Z,10.11
2023-04-01T04:08:59.179Z,9.98
2023-04-01T04:11:28.083Z,9.96
2023-04-01T04:13:57.144Z,10.00
2023-04-01T04:16:25.712Z,9.90
2023-04-01T04:19:02.940Z,10.05
2023-04-01T04:21:31.975Z,9.96
2023-04-01T04:24:01.550Z,10.16
2023-04-01T04:26:38.307Z,10.11
2023-04-01T04:29:05.991Z,10.11
2023-04-01T04:31:33.741Z,10.10
2023-04-01T04:34:02.667Z,10.09
2023-04-01T04:36:35.681Z,10.07
2023-04-01T04:39:04.206Z,10.10
2023-04-01T04:41:35.911Z,10.20
2023-04-01T04:44:06.357Z,10.13
2023-04-01T04:46:34.299Z,10.06
2023-04-01T04:49:11.806Z,10.05
2023-04-01T04:51:41.458Z,10.20
2023-04-01T04:54:10.861Z,10.18
2023-04-01T04:56:50.385Z,10.18
2023-04-01T04:59:18.630Z,10.08
2023-04-01T05:01:52.986Z,10.03
2023-04-01T05:04:20.689Z,10.01
2023-04-01T05:06:50.312Z,9.98
2023-04-01T05:09:18.927Z,10.05
2023-04-01T05:11:46.828Z,9.89
2023-04-01T05:14:16.097Z,9.93
2023-04-01T05:16:48.030Z,9.98
2023-04-01T05:19:15.867Z,9.80
2023-04-01T05:21:43.693Z,9.92
2023-04-01T05:24:12.742Z,9.78
2023-04-01T05:26:41.087Z,9.84
2023-04-01T05:29:08.761Z,9.68
2023-04-01T05:31:36.898Z,9.71
2023-04-01T05:34:06.084Z,9.74
2023-04-01T05:36:34.322Z,9.65
2023-04-01T05:39:02.182Z,9.60
2023-04-01T05:41:31.619Z,9.65
2023-04-01T05:43:59.239Z,9.64
2023-04-01T05:46:42.566Z,9.62
2023-04-01T05:49:29.054Z,9.62
2023-04-01T05:51:57.318Z,9.58
2023-04-01T05:54:25.450Z,9.68
2023-04-01T05:56:54.591Z,9.64
2023-04-01T05:59:22.448Z,9.65
2023-04-01T06:01:50.141Z,9.59
2023-04-01T06:04:19.545Z,9.56
2023-04-01T06:06:47.717Z,9.50
2023-04-01T06:09:17.760Z,9.67
2023-04-01T06:12:18.726Z,9.65
2023-04-01T06:15:08.713Z,9.70
2023-04-01T06:17:49.430Z,9.34
2023-04-01T06:20:26.602Z,9.81
2023-04-01T06:23:08.406Z,9.76
2023-04-01T06:25:52.220Z,9.71
2023-04-01T06:29:16.598Z,9.71
2023-04-01T06:32:03.424Z,9.75
2023-04-01T06:34:50.246Z,9.74
2023-04-01T06:37:33.561Z,9.74
2023-04-01T06:40:28.759Z,9.80
2023-04-01T06:43:09.775Z,9.71
2023-04-01T06:46:04.669Z,9.73
2023-04-01T06:49:07.106Z,9.83
2023-04-01T06:52:01.727Z,9.76
2023-04-01T06:54:54.417Z,9.80
2023-04-01T06:57:45.651Z,9.75
2023-04-01T07:00:21.046Z,9.88
2023-04-01T07:02:59.008Z,9.63
2023-04-01T07:05:29.401Z,9.77
2023-04-01T07:08:01.351Z,9.83
2023-04-01T07:10:37.802Z,9.84
2023-04-01T07:13:29.152Z,9.82
2023-04-01T07:16:15.774Z,9.84
2023-04-01T07:18:51.798Z,9.83
2023-04-01T07:21:30.548Z,9.87
2023-04-01T07:24:06.540Z,9.98
2023-04-01T07:26:41.355Z,10.03
2023-04-01T07:29:16.579Z,9.80
2023-04-01T07:32:14.525Z,9.81
2023-04-01T07:34:53.824Z,9.82
2023-04-01T07:37:29.826Z,9.85
2023-04-01T07:40:12.528Z,9.82
2023-04-01T07:42:55.334Z,9.85
2023-04-01T07:45:29.146Z,9.91
2023-04-01T07:48:13.177Z,9.82
2023-04-01T07:50:49.164Z,9.90
2023-04-01T07:53:24.832Z,9.90
2023-04-01T07:56:06.435Z,10.02
2023-04-01T07:58:46.709Z,10.04
2023-04-01T08:01:32.541Z,9.98
2023-04-01T08:04:28.327Z,10.06
2023-04-01T08:10:28.240Z,10.15
2023-04-01T08:13:26.392Z,10.13
2023-04-01T08:16:22.121Z,10.24
2023-04-01T08:19:01.410Z,10.07
2023-04-01T08:21:34.261Z,10.08
2023-04-01T08:24:20.701Z,10.20
2023-04-01T08:26:56.078Z,10.11
2023-04-01T08:29:27.882Z,9.95
2023-04-01T08:32:00.256Z,9.78
2023-04-01T08:34:33.430Z,9.66
2023-04-01T08:37:06.796Z,9.66
2023-04-01T08:39:39.769Z,9.46
2023-04-01T08:42:37.262Z,9.40
2023-04-01T08:45:34.660Z,9.30
2023-04-01T08:48:36.891Z,9.35
2023-04-01T08:51:39.302Z,9.32
2023-04-01T08:54:30.747Z,9.45
2023-04-01T08:57:06.010Z,9.28
2023-04-01T08:59:51.131Z,9.11
2023-04-01T09:02:57.542Z,9.39
2023-04-01T09:06:00.901Z,9.43
2023-04-01T09:08:45.458Z,9.41
2023-04-01T09:11:30.009Z,9.28
2023-04-01T09:14:17.741Z,9.51
2023-04-01T09:17:10.473Z,9.51
2023-04-01T09:19:52.292Z,9.58
2023-04-01T09:22:26.689Z,9.72
2023-04-01T09:25:23.290Z,9.58
2023-04-01T09:27:59.136Z,9.70
2023-04-01T09:30:56.197Z,9.56
2023-04-01T09:33:54.524Z,9.76
2023-04-01T09:36:45.254Z,9.40
2023-04-01T09:39:29.028Z,9.79
2023-04-01T09:42:09.436Z,9.73
2023-04-01T09:44:48.411Z,9.74
2023-04-01T09:47:30.624Z,9.76
2023-04-01T09:50:18.599Z,9.93
2023-04-01T09:52:55.004Z,9.91
2023-04-01T09:55:54.208Z,9.85
2023-04-01T09:58:47.100Z,9.93
2023-04-01T10:02:04.285Z,10.09
2023-04-01T10:05:06.704Z,9.96
2023-04-01T10:08:06.927Z,10.01
2023-04-01T10:10:57.667Z,10.10
2023-04-01T10:14:02.718Z,10.09
2023-04-01T10:17:00.057Z,9.76
2023-04-01T10:19:57.441Z,9.74
2023-04-01T10:22:56.206Z,9.82
2023-04-01T10:25:47.179Z,9.74
2023-04-01T10:28:38.532Z,9.85
2023-04-01T10:32:07.583Z,9.85
2023-04-01T10:35:07.217Z,9.88
2023-04-01T10:37:56.365Z,10.02
2023-04-01T10:40:54.021Z,10.11
2023-04-01T10:44:33.268Z,10.04
2023-04-01T10:47:38.214Z,10.15
2023-04-01T10:50:25.966Z,10.17
2023-04-01T10:53:33.470Z,10.17
2023-04-01T10:56:40.646Z,10.16
2023-04-01T10:59:46.612Z,10.05
2023-04-01T11:03:13.470Z,9.96
2023-04-01T11:06:24.317Z,9.99
2023-04-01T11:09:21.524Z,10.06
2023-04-01T11:12:05.883Z,9.98
2023-04-01T11:15:28.276Z,9.91
2023-04-01T11:18:52.450Z,9.86
2023-04-01T11:22:01.653Z,9.81
2023-04-01T11:25:01.030Z,9.74
2023-04-01T11:27:55.842Z,9.77
2023-04-01T11:30:51.130Z,9.70
2023-04-01T11:33:24.747Z,9.84
2023-04-01T11:36:17.038Z,9.81
2023-04-01T11:39:02.343Z,9.84
2023-04-01T11:42:22.901Z,9.92
2023-04-01T11:45:26.608Z,9.92
2023-04-01T11:48:09.083Z,9.95
2023-04-01T11:50:52.571Z,9.94
2023-04-01T11:53:34.862Z,9.97
2023-04-01T11:56:15.789Z,10.06
2023-04-01T11:59:26.364Z,9.93
2023-04-01T12:02:05.127Z,9.90
2023-04-01T12:04:45.711Z,9.87
2023-04-01T12:07:23.422Z,9.96
2023-04-01T12:10:01.243Z,9.97
2023-04-01T12:12:40.122Z,10.07
2023-04-01T12:15:23.905Z,10.10
2023-04-01T12:17:58.979Z,10.09
2023-04-01T12:20:43.307Z,10.08
2023-04-01T12:23:22.686Z,10.09
2023-04-01T12:26:12.137Z,10.09
2023-04-01T12:28:56.246Z,10.12
2023-04-01T12:31:37.825Z,10.01
2023-04-01T12:34:36.636Z,10.29
2023-04-01T12:37:10.406Z,10.21
2023-04-01T12:39:53.664Z,9.95
2023-04-01T12:42:38.788Z,10.30
2023-04-01T12:45:28.779Z,10.29
2023-04-01T12:48:24.454Z,9.64
2023-04-01T12:51:22.658Z,10.32
2023-04-01T12:54:17.127Z,10.31
2023-04-01T12:56:55.193Z,10.33
2023-04-01T12:59:39.443Z,10.41
2023-04-01T13:02:23.097Z,10.47
2023-04-01T13:05:05.393Z,10.54
2023-04-01T13:08:11.893Z,10.36
2023-04-01T13:10:52.520Z,10.55
2023-04-01T13:13:36.387Z,10.69
2023-04-01T13:16:12.423Z,10.68
2023-04-01T13:18:57.393Z,10.77
2023-04-01T13:21:35.444Z,10.60
2023-04-01T13:24:12.527Z,10.64
2023-04-01T13:26:53.122Z,10.64
2023-04-01T13:29:24.060Z,10.66
2023-04-01T13:32:11.528Z,10.55
2023-04-01T13:34:58.597Z,10.55
2023-04-01T13:37:36.627Z,10.62
2023-04-01T13:40:19.990Z,10.58
2023-04-01T13:42:55.138Z,10.49
2023-04-01T13:45:26.839Z,10.35
2023-04-01T13:48:29.013Z,10.49
2023-04-01T13:51:42.685Z,10.57
2023-04-01T13:54:34.844Z,10.61
2023-04-01T13:57:19.996Z,10.81
2023-04-01T14:00:19.035Z,10.71
2023-04-01T14:03:02.816Z,10.82
2023-04-01T14:06:21.420Z,10.90
2023-04-01T14:09:05.564Z,10.55
2023-04-01T14:11:40.345Z,10.86
2023-04-01T14:14:18.270Z,10.80
2023-04-01T14:17:10.434Z,10.66
2023-04-01T14:19:55.448Z,10.65
2023-04-01T14:22:32.549Z,10.70
2023-04-01T14:25:29.082Z,10.64
2023-04-01T14:28:06.133Z,10.60
2023-04-01T14:30:50.641Z,10.74
2023-04-01T14:33:27.941Z,10.74
2023-04-01T14:36:10.733Z,10.65
2023-04-01T14:38:56.909Z,10.73
2023-04-01T14:41:39.362Z,10.74
2023-04-01T14:44:37.292Z,10.79
2023-04-01T14:47:26.310Z,10.74
2023-04-01T14:49:56.941Z,10.79
2023-04-01T14:52:30.214Z,10.78
2023-04-01T14:54:59.925Z,10.74
2023-04-01T14:57:31.028Z,10.84
2023-04-01T15:00:03.551Z,10.76
2023-04-01T15:02:53.734Z,10.95
2023-04-01T15:05:34.656Z,11.05
2023-04-01T15:08:17.648Z,11.08
2023-04-01T15:11:10.621Z,11.16
2023-04-01T15:14:14.819Z,11.13
2023-04-01T15:16:57.569Z,10.96
2023-04-01T15:19:38.415Z,10.67
2023-04-01T15:22:25.955Z,10.57
2023-04-01T15:25:07.646Z,10.50
2023-04-01T15:27:44.364Z,10.62
2023-04-01T15:30:23.609Z,10.47
2023-04-01T15:33:09.512Z,10.31
2023-04-01T15:35:43.834Z,10.31
2023-04-01T15:38:27.489Z,10.25
2023-04-01T15:41:02.929Z,10.18
2023-04-01T15:43:42.122Z,10.20
2023-04-01T15:46:45.439Z,10.11
2023-04-01T15:49:35.096Z,10.16
2023-04-01T15:52:24.943Z,10.31
2023-04-01T15:55:19.430Z,10.36
2023-04-01T15:58:03.636Z,10.36
2023-04-01T16:00:32.950Z,10.28
2023-04-01T16:03:20.806Z,10.29
2023-04-01T16:06:14.722Z,10.21
2023-04-01T16:09:03.917Z,10.19
2023-04-01T16:11:43.218Z,10.21
2023-04-01T16:14:22.986Z,10.10
2023-04-01T16:17:01.685Z,10.08
2023-04-01T16:19:39.610Z,10.07
2023-04-01T16:22:14.853Z,10.01
2023-04-01T16:24:47.325Z,10.09
2023-04-01T16:27:20.010Z,9.99
2023-04-01T16:29:53.059Z,10.00
2023-04-01T16:32:33.420Z,9.97
2023-04-01T16:35:16.908Z,10.00
2023-04-01T16:37:51.483Z,10.07
2023-04-01T16:40:35.602Z,10.05
2023-04-01T16:43:12.300Z,10.08
2023-04-01T16:45:45.410Z,10.06
2023-04-01T16:48:17.002Z,10.09
2023-04-01T16:51:00.568Z,10.07
2023-04-01T16:53:45.224Z,10.08
2023-04-01T16:56:18.597Z,9.96
2023-04-01T16:59:01.902Z,9.92
2023-04-01T17:01:38.236Z,9.89
2023-04-01T17:04:13.819Z,10.07
2023-04-01T17:06:50.686Z,9.95
2023-04-01T17:09:44.283Z,9.93
2023-04-01T17:12:21.813Z,9.98
2023-04-01T17:15:01.395Z,10.03
2023-04-01T17:17:36.950Z,9.88
2023-04-01T17:20:17.281Z,9.85
2023-04-01T17:22:55.087Z,10.15
2023-04-01T17:25:36.134Z,10.06
2023-04-01T17:28:14.981Z,10.15
2023-04-01T17:30:51.168Z,10.03
2023-04-01T17:33:56.961Z,10.16
2023-04-01T17:36:39.445Z,10.08
2023-04-01T17:39:22.097Z,9.86
2023-04-01T17:41:58.350Z,10.02
2023-04-01T17:44:46.373Z,10.14
2023-04-01T17:47:26.888Z,10.12
2023-04-01T17:50:03.759Z,9.96
2023-04-01T17:52:36.598Z,10.16
2023-04-01T17:55:40.830Z,10.02
2023-04-01T17:58:19.031Z,10.16
2023-04-01T18:01:00.757Z,10.04
2023-04-01T18:03:51.500Z,10.12
2023-04-01T18:06:23.072Z,10.05
2023-04-01T18:09:00.344Z,10.12
2023-04-01T18:11:41.115Z,10.44
2023-04-01T18:14:44.902Z,10.78
2023-04-01T18:17:25.386Z,10.99
2023-04-01T18:20:11.214Z,11.04
2023-04-01T18:22:43.451Z,11.25
2023-04-01T18:25:21.661Z,10.94
2023-04-01T18:27:52.674Z,10.65
2023-04-01T18:30:28.258Z,10.24
2023-04-01T18:33:02.594Z,10.22
2023-04-01T18:35:47.086Z,10.17
2023-04-01T18:38:18.327Z,10.07
2023-04-01T18:40:53.585Z,10.13
2023-04-01T18:43:38.462Z,9.83
2023-04-01T18:46:18.971Z,10.17
2023-04-01T18:48:54.247Z,10.12
2023-04-01T18:51:26.571Z,10.05
2023-04-01T18:53:59.518Z,10.12
2023-04-01T18:56:32.497Z,10.11
2023-04-01T18:59:07.687Z,9.91
2023-04-01T19:01:42.979Z,9.88
2023-04-01T19:04:21.111Z,9.93
2023-04-01T19:06:52.761Z,9.76
2023-04-01T19:09:23.749Z,9.78
2023-04-01T19:12:04.160Z,9.86
2023-04-01T19:14:49.001Z,9.87
2023-04-01T19:17:32.190Z,9.71
2023-04-01T19:20:09.369Z,9.79
2023-04-01T19:22:54.119Z,9.65
2023-04-01T19:25:28.669Z,9.77
2023-04-01T19:28:09.398Z,9.91
2023-04-01T19:30:49.771Z,9.82
2023-04-01T19:33:34.868Z,9.63
2023-04-01T19:36:13.290Z,9.73
2023-04-01T19:38:42.258Z,9.47
2023-04-01T19:41:23.172Z,9.88
2023-04-01T19:44:01.739Z,9.76
2023-04-01T19:46:34.610Z,9.88
2023-04-01T19:49:20.034Z,9.82
2023-04-01T19:51:53.548Z,9.78
2023-04-01T19:54:32.330Z,9.75
2023-04-01T19:57:13.234Z,9.79
2023-04-01T19:59:47.436Z,9.80
2023-04-01T20:02:36.614Z,9.86
2023-04-01T20:05:25.801Z,9.92
2023-04-01T20:07:55.770Z,9.86
2023-04-01T20:10:33.948Z,9.92
2023-04-01T20:13:08.657Z,9.91
2023-04-01T20:15:39.719Z,9.97
2023-04-01T20:18:15.390Z,9.71
2023-04-01T20:20:56.804Z,9.69
2023-04-01T20:23:37.006Z,9.69
2023-04-01T20:26:08.683Z,9.84
2023-04-01T20:28:45.632Z,9.90
2023-04-01T20:31:29.381Z,9.92
2023-04-01T20:34:23.867Z,9.70
2023-04-01T20:37:15.473Z,9.84
2023-04-01T20:40:19.584Z,9.82
2023-04-01T20:43:22.332Z,10.01
2023-04-01T20:45:58.568Z,9.98
2023-04-01T20:48:40.852Z,9.95
2023-04-01T20:51:12.568Z,9.83
2023-04-01T20:53:45.660Z,9.75
2023-04-01T20:56:34.736Z,9.73
2023-04-01T20:59:18.278Z,9.83
2023-04-01T21:01:52.969Z,9.89
2023-04-01T21:04:32.624Z,9.89
2023-04-01T21:07:14.423Z,9.84
2023-04-01T21:10:10.151Z,9.71
2023-04-01T21:12:49.848Z,9.71
2023-04-01T21:15:32.600Z,9.82
2023-04-01T21:18:12.212Z,9.85
2023-04-01T21:21:01.203Z,9.73
2023-04-01T21:23:43.964Z,9.84
2023-04-01T21:26:28.673Z,9.80
2023-04-01T21:29:13.343Z,9.65
2023-04-01T21:31:54.125Z,9.47
2023-04-01T21:34:42.739Z,9.63
2023-04-01T21:37:27.965Z,9.64
2023-04-01T21:40:14.457Z,9.60
2023-04-01T21:42:51.460Z,9.58
2023-04-01T21:45:34.394Z,9.71
2023-04-01T21:48:40.244Z,9.81
2023-04-01T21:51:35.665Z,9.73
2023-04-01T21:54:39.428Z,9.51
2023-04-01T21:57:37.975Z,9.57
2023-04-01T22:00:23.231Z,9.59
2023-04-01T22:03:30.647Z,9.67
2023-04-01T22:06:23.479Z,9.48
2023-04-01T22:09:05.443Z,9.54
2023-04-01T22:11:45.814Z,9.57
2023-04-01T22:14:23.006Z,9.62
2023-04-01T22:16:58.334Z,9.51
2023-04-01T22:19:32.106Z,9.60
2023-04-01T22:22:06.133Z,9.43
2023-04-01T22:24:53.564Z,9.50
2023-04-01T22:27:28.914Z,9.57
2023-04-01T22:30:06.500Z,9.48
2023-04-01T22:32:44.137Z,9.60
2023-04-01T22:35:25.881Z,9.41
2023-04-01T22:38:01.500Z,9.45
2023-04-01T22:40:36.704Z,9.49
2023-04-01T22:43:08.472Z,9.51
2023-04-01T22:45:54.646Z,9.61
2023-04-01T22:48:33.748Z,9.60
2023-04-01T22:51:10.102Z,9.54
2023-04-01T22:53:56.707Z,9.41
2023-04-01T22:56:29.804Z,9.29
2023-04-01T22:59:02.402Z,9.44
2023-04-01T23:01:35.285Z,9.45
2023-04-01T23:04:07.222Z,9.42
2023-04-01T23:06:39.769Z,9.41
2023-04-01T23:09:13.110Z,9.41
2023-04-01T23:11:46.930Z,9.35
2023-04-01T23:14:41.689Z,9.23
2023-04-01T23:17:44.032Z,9.16
2023-04-01T23:20:21.460Z,9.22
2023-04-01T23:23:00.926Z,9.12
2023-04-01T23:25:40.337Z,9.07
2023-04-01T23:28:33.714Z,9.14
2023-04-01T23:31:01.443Z,8.94
2023-04-01T23:33:31.937Z,9.03
2023-04-01T23:36:06.285Z,9.07
2023-04-01T23:38:36.550Z,9.06
2023-04-01T23:41:05.872Z,9.02
2023-04-01T23:43:37.533Z,9.02
2023-04-01T23:46:08.225Z,8.93
2023-04-01T23:48:39.863Z,9.11
2023-04-01T23:51:16.855Z,8.99
2023-04-01T23:53:47.340Z,8.96
2023-04-01T23:56:15.358Z,8.90
2023-04-01T23:58:45.993Z,8.88
